Erin, Alabama
Current Conditions -  °F | °C
As of 12:53 PM on Tuesday 27 Jan 2015 (Local Time) from KANB Reporting Station
Broken Clouds Broken Clouds  
Wind Chill: 54°   Ceiling: 5000
Heat Index: 54°   Visibility: 10mi
Dew Point: 30°   Wind: 7mph
Humidity: 40%   Direction: 320°NW
Pressure: 30"   Gusts: 17mph
Location:  33.3533°N, 85.7343°W
Report Text: KANB 271853Z AUTO 32006G15KT 10SM BKN050 12/M01 A3000 RMK AO2 SLP165 T01221011
Loading
Personal Weather Stations






























Interactive Weather Map New forecast layout! Learn more

10-Day Weather Forecast

Advertisements
Track Severe Weather on mobile